sensor_id;sensor_type;location;lat;lon;timestamp;P1;durP1;ratioP1;P2;durP2;ratioP2
19364;SDS011;9818;48.382;10.850;2023-05-10T00:01:10;1.90;;;1.80;;
19364;SDS011;9818;48.382;10.850;2023-05-10T00:03:39;3.13;;;2.20;;
19364;SDS011;9818;48.382;10.850;2023-05-10T00:06:10;2.30;;;2.10;;
19364;SDS011;9818;48.382;10.850;2023-05-10T00:08:39;2.07;;;1.97;;
19364;SDS011;9818;48.382;10.850;2023-05-10T00:11:07;1.70;;;1.60;;
19364;SDS011;9818;48.382;10.850;2023-05-10T00:13:36;2.27;;;2.07;;
19364;SDS011;9818;48.382;10.850;2023-05-10T00:16:05;2.17;;;2.00;;
19364;SDS011;9818;48.382;10.850;2023-05-10T00:18:34;1.73;;;1.63;;
19364;SDS011;9818;48.382;10.850;2023-05-10T00:21:03;1.83;;;1.73;;
19364;SDS011;9818;48.382;10.850;2023-05-10T00:23:34;2.10;;;1.90;;
19364;SDS011;9818;48.382;10.850;2023-05-10T00:26:03;1.80;;;1.70;;
19364;SDS011;9818;48.382;10.850;2023-05-10T00:28:32;2.33;;;1.80;;
19364;SDS011;9818;48.382;10.850;2023-05-10T00:31:00;1.90;;;1.80;;
19364;SDS011;9818;48.382;10.850;2023-05-10T00:33:29;2.20;;;1.60;;
19364;SDS011;9818;48.382;10.850;2023-05-10T00:35:58;1.60;;;1.50;;
19364;SDS011;9818;48.382;10.850;2023-05-10T00:38:27;1.80;;;1.60;;
19364;SDS011;9818;48.382;10.850;2023-05-10T00:40:58;1.77;;;1.67;;
19364;SDS011;9818;48.382;10.850;2023-05-10T00:43:26;1.70;;;1.60;;
19364;SDS011;9818;48.382;10.850;2023-05-10T00:45:55;1.80;;;1.70;;
19364;SDS011;9818;48.382;10.850;2023-05-10T00:48:24;1.87;;;1.77;;
19364;SDS011;9818;48.382;10.850;2023-05-10T00:50:53;1.67;;;1.57;;
19364;SDS011;9818;48.382;10.850;2023-05-10T00:53:21;2.73;;;1.80;;
19364;SDS011;9818;48.382;10.850;2023-05-10T00:55:50;1.80;;;1.70;;
19364;SDS011;9818;48.382;10.850;2023-05-10T00:58:21;2.43;;;1.60;;
19364;SDS011;9818;48.382;10.850;2023-05-10T01:00:53;1.60;;;1.47;;
19364;SDS011;9818;48.382;10.850;2023-05-10T01:03:24;1.83;;;1.70;;
19364;SDS011;9818;48.382;10.850;2023-05-10T01:05:53;1.60;;;1.50;;
19364;SDS011;9818;48.382;10.850;2023-05-10T01:08:22;1.60;;;1.50;;
19364;SDS011;9818;48.382;10.850;2023-05-10T01:10:50;1.70;;;1.60;;
19364;SDS011;9818;48.382;10.850;2023-05-10T01:13:30;1.73;;;1.50;;
19364;SDS011;9818;48.382;10.850;2023-05-10T01:16:01;1.43;;;1.30;;
19364;SDS011;9818;48.382;10.850;2023-05-10T01:18:31;2.20;;;1.60;;
19364;SDS011;9818;48.382;10.850;2023-05-10T01:21:06;1.50;;;1.40;;
19364;SDS011;9818;48.382;10.850;2023-05-10T01:23:45;1.60;;;1.50;;
19364;SDS011;9818;48.382;10.850;2023-05-10T01:26:50;1.70;;;1.60;;
19364;SDS011;9818;48.382;10.850;2023-05-10T01:32:39;1.60;;;1.50;;
19364;SDS011;9818;48.382;10.850;2023-05-10T01:35:14;1.70;;;1.60;;
19364;SDS011;9818;48.382;10.850;2023-05-10T01:37:48;1.70;;;1.60;;
19364;SDS011;9818;48.382;10.850;2023-05-10T01:40:26;1.40;;;1.30;;
19364;SDS011;9818;48.382;10.850;2023-05-10T01:43:01;2.17;;;1.60;;
19364;SDS011;9818;48.382;10.850;2023-05-10T01:45:33;1.60;;;1.50;;
19364;SDS011;9818;48.382;10.850;2023-05-10T01:48:10;1.57;;;1.47;;
19364;SDS011;9818;48.382;10.850;2023-05-10T01:50:41;1.87;;;1.40;;
19364;SDS011;9818;48.382;10.850;2023-05-10T01:53:13;1.50;;;1.40;;
19364;SDS011;9818;48.382;10.850;2023-05-10T01:55:47;1.70;;;1.60;;
19364;SDS011;9818;48.382;10.850;2023-05-10T01:58:20;1.50;;;1.40;;
19364;SDS011;9818;48.382;10.850;2023-05-10T02:00:52;1.73;;;1.53;;
19364;SDS011;9818;48.382;10.850;2023-05-10T02:03:24;1.47;;;1.37;;
19364;SDS011;9818;48.382;10.850;2023-05-10T02:05:55;1.40;;;1.30;;
19364;SDS011;9818;48.382;10.850;2023-05-10T02:08:25;1.53;;;1.43;;
19364;SDS011;9818;48.382;10.850;2023-05-10T02:10:55;1.30;;;1.20;;
19364;SDS011;9818;48.382;10.850;2023-05-10T02:13:25;1.40;;;1.30;;
19364;SDS011;9818;48.382;10.850;2023-05-10T02:15:55;1.43;;;1.33;;
19364;SDS011;9818;48.382;10.850;2023-05-10T02:18:28;1.40;;;1.30;;
19364;SDS011;9818;48.382;10.850;2023-05-10T02:20:57;1.77;;;1.40;;
19364;SDS011;9818;48.382;10.850;2023-05-10T02:23:27;1.40;;;1.30;;
19364;SDS011;9818;48.382;10.850;2023-05-10T02:25:57;1.30;;;1.20;;
19364;SDS011;9818;48.382;10.850;2023-05-10T02:28:26;3.27;;;1.50;;
19364;SDS011;9818;48.382;10.850;2023-05-10T02:30:57;1.50;;;1.40;;
19364;SDS011;9818;48.382;10.850;2023-05-10T02:33:28;1.47;;;1.30;;
19364;SDS011;9818;48.382;10.850;2023-05-10T02:35:58;2.00;;;1.30;;
19364;SDS011;9818;48.382;10.850;2023-05-10T02:38:28;1.50;;;1.40;;
19364;SDS011;9818;48.382;10.850;2023-05-10T02:40:58;1.50;;;1.40;;
19364;SDS011;9818;48.382;10.850;2023-05-10T02:43:27;1.40;;;1.30;;
19364;SDS011;9818;48.382;10.850;2023-05-10T02:46:01;1.30;;;1.20;;
19364;SDS011;9818;48.382;10.850;2023-05-10T02:48:33;1.47;;;1.37;;
19364;SDS011;9818;48.382;10.850;2023-05-10T02:51:04;1.30;;;1.20;;
19364;SDS011;9818;48.382;10.850;2023-05-10T02:53:35;1.43;;;1.33;;
19364;SDS011;9818;48.382;10.850;2023-05-10T02:56:09;1.20;;;1.10;;
19364;SDS011;9818;48.382;10.850;2023-05-10T02:58:42;1.30;;;1.20;;
19364;SDS011;9818;48.382;10.850;2023-05-10T03:01:11;1.40;;;1.30;;
19364;SDS011;9818;48.382;10.850;2023-05-10T03:03:43;1.67;;;1.40;;
19364;SDS011;9818;48.382;10.850;2023-05-10T03:06:11;1.20;;;1.10;;
19364;SDS011;9818;48.382;10.850;2023-05-10T03:08:41;1.30;;;1.20;;
19364;SDS011;9818;48.382;10.850;2023-05-10T03:11:16;1.30;;;1.20;;
19364;SDS011;9818;48.382;10.850;2023-05-10T03:13:56;1.20;;;1.10;;
19364;SDS011;9818;48.382;10.850;2023-05-10T03:16:38;1.27;;;1.17;;
19364;SDS011;9818;48.382;10.850;2023-05-10T03:19:17;1.20;;;1.10;;
19364;SDS011;9818;48.382;10.850;2023-05-10T03:21:52;1.40;;;1.30;;
19364;SDS011;9818;48.382;10.850;2023-05-10T03:24:26;1.47;;;1.37;;
19364;SDS011;9818;48.382;10.850;2023-05-10T03:26:56;1.57;;;1.10;;
19364;SDS011;9818;48.382;10.850;2023-05-10T03:29:29;0.90;;;0.90;;
19364;SDS011;9818;48.382;10.850;2023-05-10T03:31:58;1.20;;;1.10;;
19364;SDS011;9818;48.382;10.850;2023-05-10T03:34:30;1.20;;;1.10;;
19364;SDS011;9818;48.382;10.850;2023-05-10T03:36:59;1.17;;;1.10;;
19364;SDS011;9818;48.382;10.850;2023-05-10T03:39:27;1.13;;;1.10;;
19364;SDS011;9818;48.382;10.850;2023-05-10T03:41:56;1.27;;;1.17;;
19364;SDS011;9818;48.382;10.850;2023-05-10T03:44:25;1.20;;;1.10;;
19364;SDS011;9818;48.382;10.850;2023-05-10T03:46:53;1.10;;;1.10;;
19364;SDS011;9818;48.382;10.850;2023-05-10T03:49:22;1.10;;;1.00;;
19364;SDS011;9818;48.382;10.850;2023-05-10T03:51:53;1.10;;;1.07;;
19364;SDS011;9818;48.382;10.850;2023-05-10T03:54:22;1.03;;;0.93;;
19364;SDS011;9818;48.382;10.850;2023-05-10T03:56:51;1.00;;;0.90;;
19364;SDS011;9818;48.382;10.850;2023-05-10T03:59:19;1.00;;;1.00;;
19364;SDS011;9818;48.382;10.850;2023-05-10T04:01:48;1.00;;;1.00;;
19364;SDS011;9818;48.382;10.850;2023-05-10T04:04:17;1.70;;;1.00;;
19364;SDS011;9818;48.382;10.850;2023-05-10T04:06:46;0.93;;;0.90;;
19364;SDS011;9818;48.382;10.850;2023-05-10T04:09:18;1.30;;;1.20;;
19364;SDS011;9818;48.382;10.850;2023-05-10T04:11:46;0.90;;;0.90;;
19364;SDS011;9818;48.382;10.850;2023-05-10T04:14:15;1.27;;;1.10;;
19364;SDS011;9818;48.382;10.850;2023-05-10T04:16:44;1.10;;;1.00;;
19364;SDS011;9818;48.382;10.850;2023-05-10T04:19:12;0.93;;;0.93;;
19364;SDS011;9818;48.382;10.850;2023-05-10T04:21:41;1.20;;;1.00;;
19364;SDS011;9818;48.382;10.850;2023-05-10T04:24:10;0.90;;;0.90;;
19364;SDS011;9818;48.382;10.850;2023-05-10T04:26:41;0.80;;;0.80;;
19364;SDS011;9818;48.382;10.850;2023-05-10T04:29:10;0.90;;;0.90;;
19364;SDS011;9818;48.382;10.850;2023-05-10T04:31:39;0.80;;;0.80;;
19364;SDS011;9818;48.382;10.850;2023-05-10T04:34:07;1.10;;;0.90;;
19364;SDS011;9818;48.382;10.850;2023-05-10T04:36:36;0.90;;;0.90;;
19364;SDS011;9818;48.382;10.850;2023-05-10T04:39:05;0.80;;;0.80;;
19364;SDS011;9818;48.382;10.850;2023-05-10T04:41:34;0.90;;;0.90;;
19364;SDS011;9818;48.382;10.850;2023-05-10T04:44:07;1.10;;;1.00;;
19364;SDS011;9818;48.382;10.850;2023-05-10T04:46:36;0.90;;;0.90;;
19364;SDS011;9818;48.382;10.850;2023-05-10T04:49:05;0.83;;;0.83;;
19364;SDS011;9818;48.382;10.850;2023-05-10T04:51:33;0.80;;;0.80;;
19364;SDS011;9818;48.382;10.850;2023-05-10T04:54:02;0.90;;;0.90;;
19364;SDS011;9818;48.382;10.850;2023-05-10T04:56:31;0.80;;;0.80;;
19364;SDS011;9818;48.382;10.850;2023-05-10T04:58:59;0.80;;;0.80;;
19364;SDS011;9818;48.382;10.850;2023-05-10T05:01:31;1.00;;;0.80;;
19364;SDS011;9818;48.382;10.850;2023-05-10T05:03:59;0.90;;;0.90;;
19364;SDS011;9818;48.382;10.850;2023-05-10T05:06:28;1.07;;;0.97;;
19364;SDS011;9818;48.382;10.850;2023-05-10T05:08:56;1.07;;;0.97;;
19364;SDS011;9818;48.382;10.850;2023-05-10T05:11:25;0.90;;;0.90;;
19364;SDS011;9818;48.382;10.850;2023-05-10T05:13:54;0.70;;;0.70;;
19364;SDS011;9818;48.382;10.850;2023-05-10T05:16:24;0.77;;;0.77;;
19364;SDS011;9818;48.382;10.850;2023-05-10T05:18:55;1.20;;;0.70;;
19364;SDS011;9818;48.382;10.850;2023-05-10T05:21:24;1.13;;;0.90;;
19364;SDS011;9818;48.382;10.850;2023-05-10T05:23:53;0.80;;;0.80;;
19364;SDS011;9818;48.382;10.850;2023-05-10T05:26:21;0.80;;;0.80;;
19364;SDS011;9818;48.382;10.850;2023-05-10T05:28:50;1.07;;;0.97;;
19364;SDS011;9818;48.382;10.850;2023-05-10T05:31:19;0.70;;;0.70;;
19364;SDS011;9818;48.382;10.850;2023-05-10T05:33:48;1.20;;;0.77;;
19364;SDS011;9818;48.382;10.850;2023-05-10T05:36:19;0.80;;;0.80;;
19364;SDS011;9818;48.382;10.850;2023-05-10T05:38:48;0.80;;;0.80;;
19364;SDS011;9818;48.382;10.850;2023-05-10T05:41:17;0.80;;;0.70;;
19364;SDS011;9818;48.382;10.850;2023-05-10T05:43:46;0.97;;;0.80;;
19364;SDS011;9818;48.382;10.850;2023-05-10T05:46:15;0.70;;;0.70;;
19364;SDS011;9818;48.382;10.850;2023-05-10T05:48:43;0.70;;;0.70;;
19364;SDS011;9818;48.382;10.850;2023-05-10T05:51:12;0.80;;;0.80;;
19364;SDS011;9818;48.382;10.850;2023-05-10T05:53:43;0.70;;;0.70;;
19364;SDS011;9818;48.382;10.850;2023-05-10T05:56:12;0.63;;;0.63;;
19364;SDS011;9818;48.382;10.850;2023-05-10T05:58:42;0.97;;;0.80;;
19364;SDS011;9818;48.382;10.850;2023-05-10T06:01:11;0.60;;;0.60;;
19364;SDS011;9818;48.382;10.850;2023-05-10T06:03:40;0.80;;;0.80;;
19364;SDS011;9818;48.382;10.850;2023-05-10T06:06:09;0.70;;;0.70;;
19364;SDS011;9818;48.382;10.850;2023-05-10T06:08:37;0.80;;;0.80;;
19364;SDS011;9818;48.382;10.850;2023-05-10T06:11:09;0.70;;;0.70;;
19364;SDS011;9818;48.382;10.850;2023-05-10T06:13:37;0.77;;;0.77;;
19364;SDS011;9818;48.382;10.850;2023-05-10T06:16:07;0.70;;;0.70;;
19364;SDS011;9818;48.382;10.850;2023-05-10T06:18:36;0.80;;;0.80;;
19364;SDS011;9818;48.382;10.850;2023-05-10T06:21:04;0.80;;;0.80;;
19364;SDS011;9818;48.382;10.850;2023-05-10T06:23:33;0.70;;;0.70;;
19364;SDS011;9818;48.382;10.850;2023-05-10T06:26:02;0.80;;;0.77;;
19364;SDS011;9818;48.382;10.850;2023-05-10T06:28:33;0.70;;;0.70;;
19364;SDS011;9818;48.382;10.850;2023-05-10T06:31:03;0.77;;;0.77;;
19364;SDS011;9818;48.382;10.850;2023-05-10T06:33:32;0.73;;;0.73;;
19364;SDS011;9818;48.382;10.850;2023-05-10T06:36:01;0.80;;;0.80;;
19364;SDS011;9818;48.382;10.850;2023-05-10T06:38:29;0.70;;;0.70;;
19364;SDS011;9818;48.382;10.850;2023-05-10T06:40:58;0.67;;;0.67;;
19364;SDS011;9818;48.382;10.850;2023-05-10T06:43:27;0.70;;;0.70;;
19364;SDS011;9818;48.382;10.850;2023-05-10T06:45:59;0.70;;;0.70;;
19364;SDS011;9818;48.382;10.850;2023-05-10T06:48:27;0.60;;;0.60;;
19364;SDS011;9818;48.382;10.850;2023-05-10T06:50:56;0.70;;;0.70;;
19364;SDS011;9818;48.382;10.850;2023-05-10T06:53:25;0.90;;;0.70;;
19364;SDS011;9818;48.382;10.850;2023-05-10T06:55:53;1.67;;;0.70;;
19364;SDS011;9818;48.382;10.850;2023-05-10T06:58:22;0.80;;;0.80;;
19364;SDS011;9818;48.382;10.850;2023-05-10T07:00:50;1.67;;;0.93;;
19364;SDS011;9818;48.382;10.850;2023-05-10T07:03:22;0.70;;;0.70;;
19364;SDS011;9818;48.382;10.850;2023-05-10T07:05:50;1.33;;;0.83;;
19364;SDS011;9818;48.382;10.850;2023-05-10T07:08:20;1.73;;;0.90;;
19364;SDS011;9818;48.382;10.850;2023-05-10T07:10:48;0.70;;;0.70;;
19364;SDS011;9818;48.382;10.850;2023-05-10T07:13:17;1.33;;;0.80;;
19364;SDS011;9818;48.382;10.850;2023-05-10T07:15:46;1.20;;;0.70;;
19364;SDS011;9818;48.382;10.850;2023-05-10T07:18:14;1.57;;;0.80;;
19364;SDS011;9818;48.382;10.850;2023-05-10T07:20:46;0.70;;;0.70;;
19364;SDS011;9818;48.382;10.850;2023-05-10T07:23:14;0.70;;;0.70;;
19364;SDS011;9818;48.382;10.850;2023-05-10T07:25:44;0.90;;;0.70;;
19364;SDS011;9818;48.382;10.850;2023-05-10T07:28:13;1.97;;;0.90;;
19364;SDS011;9818;48.382;10.850;2023-05-10T07:30:43;0.97;;;0.83;;
19364;SDS011;9818;48.382;10.850;2023-05-10T07:33:12;2.60;;;0.90;;
19364;SDS011;9818;48.382;10.850;2023-05-10T07:35:41;0.80;;;0.70;;
19364;SDS011;9818;48.382;10.850;2023-05-10T07:38:13;1.20;;;0.80;;
19364;SDS011;9818;48.382;10.850;2023-05-10T07:40:42;1.97;;;1.27;;
19364;SDS011;9818;48.382;10.850;2023-05-10T07:43:11;1.80;;;0.73;;
19364;SDS011;9818;48.382;10.850;2023-05-10T07:45:39;0.70;;;0.70;;
19364;SDS011;9818;48.382;10.850;2023-05-10T07:48:08;0.77;;;0.77;;
19364;SDS011;9818;48.382;10.850;2023-05-10T07:50:36;0.90;;;0.80;;
19364;SDS011;9818;48.382;10.850;2023-05-10T07:53:05;1.70;;;0.80;;
19364;SDS011;9818;48.382;10.850;2023-05-10T07:55:36;1.20;;;0.77;;
19364;SDS011;9818;48.382;10.850;2023-05-10T07:58:05;0.80;;;0.80;;
19364;SDS011;9818;48.382;10.850;2023-05-10T08:00:34;0.80;;;0.80;;
19364;SDS011;9818;48.382;10.850;2023-05-10T08:03:04;0.70;;;0.70;;
19364;SDS011;9818;48.382;10.850;2023-05-10T08:05:33;0.90;;;0.80;;
19364;SDS011;9818;48.382;10.850;2023-05-10T08:08:01;0.77;;;0.77;;
19364;SDS011;9818;48.382;10.850;2023-05-10T08:10:30;1.03;;;0.70;;
19364;SDS011;9818;48.382;10.850;2023-05-10T08:13:01;1.33;;;1.00;;
19364;SDS011;9818;48.382;10.850;2023-05-10T08:15:31;0.60;;;0.60;;
19364;SDS011;9818;48.382;10.850;2023-05-10T08:17:59;0.70;;;0.70;;
19364;SDS011;9818;48.382;10.850;2023-05-10T08:20:29;1.43;;;0.80;;
19364;SDS011;9818;48.382;10.850;2023-05-10T08:22:57;1.10;;;0.73;;
19364;SDS011;9818;48.382;10.850;2023-05-10T08:25:26;1.07;;;0.80;;
19364;SDS011;9818;48.382;10.850;2023-05-10T08:27:55;0.70;;;0.70;;
19364;SDS011;9818;48.382;10.850;2023-05-10T08:30:26;0.80;;;0.80;;
19364;SDS011;9818;48.382;10.850;2023-05-10T08:32:55;0.93;;;0.83;;
19364;SDS011;9818;48.382;10.850;2023-05-10T08:35:23;0.80;;;0.80;;
19364;SDS011;9818;48.382;10.850;2023-05-10T08:37:52;0.70;;;0.60;;
19364;SDS011;9818;48.382;10.850;2023-05-10T08:40:21;0.60;;;0.60;;
19364;SDS011;9818;48.382;10.850;2023-05-10T08:42:53;1.00;;;0.90;;
19364;SDS011;9818;48.382;10.850;2023-05-10T08:45:29;1.73;;;0.80;;
19364;SDS011;9818;48.382;10.850;2023-05-10T08:48:01;0.80;;;0.80;;
19364;SDS011;9818;48.382;10.850;2023-05-10T08:50:33;0.70;;;0.70;;
19364;SDS011;9818;48.382;10.850;2023-05-10T08:53:05;0.60;;;0.60;;
19364;SDS011;9818;48.382;10.850;2023-05-10T08:55:37;0.73;;;0.73;;
19364;SDS011;9818;48.382;10.850;2023-05-10T08:58:08;0.90;;;0.80;;
19364;SDS011;9818;48.382;10.850;2023-05-10T09:00:39;0.60;;;0.60;;
19364;SDS011;9818;48.382;10.850;2023-05-10T09:03:08;0.90;;;0.70;;
19364;SDS011;9818;48.382;10.850;2023-05-10T09:05:37;0.70;;;0.70;;
19364;SDS011;9818;48.382;10.850;2023-05-10T09:08:07;0.90;;;0.70;;
19364;SDS011;9818;48.382;10.850;2023-05-10T09:10:37;1.00;;;0.70;;
19364;SDS011;9818;48.382;10.850;2023-05-10T09:13:08;1.53;;;0.90;;
19364;SDS011;9818;48.382;10.850;2023-05-10T09:15:41;0.77;;;0.77;;
19364;SDS011;9818;48.382;10.850;2023-05-10T09:18:11;1.00;;;0.70;;
19364;SDS011;9818;48.382;10.850;2023-05-10T09:20:40;1.13;;;0.80;;
19364;SDS011;9818;48.382;10.850;2023-05-10T09:23:08;0.70;;;0.60;;
19364;SDS011;9818;48.382;10.850;2023-05-10T09:25:37;0.70;;;0.70;;
19364;SDS011;9818;48.382;10.850;2023-05-10T09:28:08;0.70;;;0.70;;
19364;SDS011;9818;48.382;10.850;2023-05-10T09:30:41;1.53;;;0.90;;
19364;SDS011;9818;48.382;10.850;2023-05-10T09:33:10;1.47;;;0.87;;
19364;SDS011;9818;48.382;10.850;2023-05-10T09:35:38;1.23;;;0.73;;
19364;SDS011;9818;48.382;10.850;2023-05-10T09:38:07;0.90;;;0.90;;
19364;SDS011;9818;48.382;10.850;2023-05-10T09:40:36;1.23;;;0.77;;
19364;SDS011;9818;48.382;10.850;2023-05-10T09:43:06;1.03;;;0.80;;
19364;SDS011;9818;48.382;10.850;2023-05-10T09:45:36;0.80;;;0.80;;
19364;SDS011;9818;48.382;10.850;2023-05-10T09:48:07;1.33;;;0.80;;
19364;SDS011;9818;48.382;10.850;2023-05-10T09:50:36;0.80;;;0.70;;
19364;SDS011;9818;48.382;10.850;2023-05-10T09:53:05;0.70;;;0.70;;
19364;SDS011;9818;48.382;10.850;2023-05-10T09:55:41;0.80;;;0.80;;
19364;SDS011;9818;48.382;10.850;2023-05-10T09:58:11;0.60;;;0.60;;
19364;SDS011;9818;48.382;10.850;2023-05-10T10:00:40;0.80;;;0.80;;
19364;SDS011;9818;48.382;10.850;2023-05-10T10:03:16;0.80;;;0.80;;
19364;SDS011;9818;48.382;10.850;2023-05-10T10:05:46;0.73;;;0.73;;
19364;SDS011;9818;48.382;10.850;2023-05-10T10:08:17;0.80;;;0.80;;
19364;SDS011;9818;48.382;10.850;2023-05-10T10:10:45;0.80;;;0.80;;
19364;SDS011;9818;48.382;10.850;2023-05-10T10:13:15;0.80;;;0.80;;
19364;SDS011;9818;48.382;10.850;2023-05-10T10:15:43;0.70;;;0.70;;
19364;SDS011;9818;48.382;10.850;2023-05-10T10:18:18;2.30;;;0.80;;
19364;SDS011;9818;48.382;10.850;2023-05-10T10:20:52;0.80;;;0.80;;
19364;SDS011;9818;48.382;10.850;2023-05-10T10:23:21;1.90;;;1.03;;
19364;SDS011;9818;48.382;10.850;2023-05-10T10:25:50;0.70;;;0.70;;
19364;SDS011;9818;48.382;10.850;2023-05-10T10:28:22;0.83;;;0.77;;
19364;SDS011;9818;48.382;10.850;2023-05-10T10:30:59;0.80;;;0.80;;
19364;SDS011;9818;48.382;10.850;2023-05-10T10:33:47;0.90;;;0.90;;
19364;SDS011;9818;48.382;10.850;2023-05-10T10:36:23;1.57;;;0.87;;
19364;SDS011;9818;48.382;10.850;2023-05-10T10:38:57;1.00;;;1.00;;
19364;SDS011;9818;48.382;10.850;2023-05-10T10:41:30;0.83;;;0.83;;
19364;SDS011;9818;48.382;10.850;2023-05-10T10:47:06;0.70;;;0.70;;
19364;SDS011;9818;48.382;10.850;2023-05-10T10:49:50;0.80;;;0.80;;
19364;SDS011;9818;48.382;10.850;2023-05-10T10:52:25;0.70;;;0.70;;
19364;SDS011;9818;48.382;10.850;2023-05-10T10:54:58;0.90;;;0.80;;
19364;SDS011;9818;48.382;10.850;2023-05-10T10:57:31;0.70;;;0.70;;
19364;SDS011;9818;48.382;10.850;2023-05-10T11:02:48;0.80;;;0.80;;
19364;SDS011;9818;48.382;10.850;2023-05-10T11:05:36;1.03;;;1.00;;
19364;SDS011;9818;48.382;10.850;2023-05-10T11:08:09;0.70;;;0.70;;
19364;SDS011;9818;48.382;10.850;2023-05-10T11:11:02;0.80;;;0.80;;
19364;SDS011;9818;48.382;10.850;2023-05-10T11:13:33;0.70;;;0.70;;
19364;SDS011;9818;48.382;10.850;2023-05-10T11:16:13;0.90;;;0.90;;
19364;SDS011;9818;48.382;10.850;2023-05-10T11:18:52;0.83;;;0.70;;
19364;SDS011;9818;48.382;10.850;2023-05-10T11:21:27;0.90;;;0.70;;
19364;SDS011;9818;48.382;10.850;2023-05-10T11:23:56;1.10;;;1.00;;
19364;SDS011;9818;48.382;10.850;2023-05-10T11:26:29;0.90;;;0.90;;
19364;SDS011;9818;48.382;10.850;2023-05-10T11:28:59;1.57;;;0.80;;
19364;SDS011;9818;48.382;10.850;2023-05-10T11:31:29;0.70;;;0.70;;
19364;SDS011;9818;48.382;10.850;2023-05-10T11:33:59;0.80;;;0.80;;
19364;SDS011;9818;48.382;10.850;2023-05-10T11:36:32;0.90;;;0.73;;
19364;SDS011;9818;48.382;10.850;2023-05-10T11:39:01;1.00;;;0.90;;
19364;SDS011;9818;48.382;10.850;2023-05-10T11:41:31;1.03;;;0.80;;
19364;SDS011;9818;48.382;10.850;2023-05-10T11:44:00;0.93;;;0.90;;
19364;SDS011;9818;48.382;10.850;2023-05-10T11:46:30;0.93;;;0.80;;
19364;SDS011;9818;48.382;10.850;2023-05-10T11:48:59;0.80;;;0.80;;
19364;SDS011;9818;48.382;10.850;2023-05-10T11:51:35;0.80;;;0.80;;
19364;SDS011;9818;48.382;10.850;2023-05-10T11:54:05;1.27;;;0.70;;
19364;SDS011;9818;48.382;10.850;2023-05-10T11:56:36;0.70;;;0.70;;
19364;SDS011;9818;48.382;10.850;2023-05-10T11:59:04;0.77;;;0.77;;
19364;SDS011;9818;48.382;10.850;2023-05-10T12:01:33;0.70;;;0.70;;
19364;SDS011;9818;48.382;10.850;2023-05-10T12:04:02;0.70;;;0.70;;
19364;SDS011;9818;48.382;10.850;2023-05-10T12:06:32;1.90;;;0.70;;
19364;SDS011;9818;48.382;10.850;2023-05-10T12:09:07;1.97;;;0.57;;
19364;SDS011;9818;48.382;10.850;2023-05-10T12:11:37;0.80;;;0.80;;
19364;SDS011;9818;48.382;10.850;2023-05-10T12:14:07;0.63;;;0.63;;
19364;SDS011;9818;48.382;10.850;2023-05-10T12:16:36;0.80;;;0.70;;
19364;SDS011;9818;48.382;10.850;2023-05-10T12:19:05;0.63;;;0.63;;
19364;SDS011;9818;48.382;10.850;2023-05-10T12:21:36;0.70;;;0.70;;
19364;SDS011;9818;48.382;10.850;2023-05-10T12:24:06;0.67;;;0.67;;
19364;SDS011;9818;48.382;10.850;2023-05-10T12:26:35;0.73;;;0.73;;
19364;SDS011;9818;48.382;10.850;2023-05-10T12:29:13;0.70;;;0.70;;
19364;SDS011;9818;48.382;10.850;2023-05-10T12:31:52;1.03;;;0.70;;
19364;SDS011;9818;48.382;10.850;2023-05-10T12:34:22;0.83;;;0.77;;
19364;SDS011;9818;48.382;10.850;2023-05-10T12:36:55;0.80;;;0.80;;
19364;SDS011;9818;48.382;10.850;2023-05-10T12:39:23;0.77;;;0.77;;
19364;SDS011;9818;48.382;10.850;2023-05-10T12:41:52;0.93;;;0.70;;
19364;SDS011;9818;48.382;10.850;2023-05-10T12:44:21;0.93;;;0.90;;
19364;SDS011;9818;48.382;10.850;2023-05-10T12:46:49;0.80;;;0.80;;
19364;SDS011;9818;48.382;10.850;2023-05-10T12:49:18;0.70;;;0.70;;
19364;SDS011;9818;48.382;10.850;2023-05-10T12:51:47;1.23;;;0.90;;
19364;SDS011;9818;48.382;10.850;2023-05-10T12:54:18;0.97;;;0.77;;
19364;SDS011;9818;48.382;10.850;2023-05-10T12:56:47;1.07;;;0.70;;
19364;SDS011;9818;48.382;10.850;2023-05-10T12:59:15;0.67;;;0.67;;
19364;SDS011;9818;48.382;10.850;2023-05-10T13:01:44;0.60;;;0.60;;
19364;SDS011;9818;48.382;10.850;2023-05-10T13:04:12;1.03;;;0.70;;
19364;SDS011;9818;48.382;10.850;2023-05-10T13:06:41;1.13;;;0.70;;
19364;SDS011;9818;48.382;10.850;2023-05-10T13:09:10;0.70;;;0.70;;
19364;SDS011;9818;48.382;10.850;2023-05-10T13:11:41;0.80;;;0.80;;
19364;SDS011;9818;48.382;10.850;2023-05-10T13:14:10;0.90;;;0.90;;
19364;SDS011;9818;48.382;10.850;2023-05-10T13:16:39;0.73;;;0.73;;
19364;SDS011;9818;48.382;10.850;2023-05-10T13:19:08;0.73;;;0.70;;
19364;SDS011;9818;48.382;10.850;2023-05-10T13:21:36;0.70;;;0.70;;
19364;SDS011;9818;48.382;10.850;2023-05-10T13:24:06;0.70;;;0.70;;
19364;SDS011;9818;48.382;10.850;2023-05-10T13:26:35;0.70;;;0.70;;
19364;SDS011;9818;48.382;10.850;2023-05-10T13:29:06;2.10;;;0.80;;
19364;SDS011;9818;48.382;10.850;2023-05-10T13:31:35;1.13;;;0.60;;
19364;SDS011;9818;48.382;10.850;2023-05-10T13:34:04;0.90;;;0.63;;
19364;SDS011;9818;48.382;10.850;2023-05-10T13:36:33;0.60;;;0.60;;
19364;SDS011;9818;48.382;10.850;2023-05-10T13:39:02;0.70;;;0.70;;
19364;SDS011;9818;48.382;10.850;2023-05-10T13:41:31;0.60;;;0.60;;
19364;SDS011;9818;48.382;10.850;2023-05-10T13:43:59;0.60;;;0.60;;
19364;SDS011;9818;48.382;10.850;2023-05-10T13:46:31;0.60;;;0.60;;
19364;SDS011;9818;48.382;10.850;2023-05-10T13:48:59;0.93;;;0.90;;
19364;SDS011;9818;48.382;10.850;2023-05-10T13:51:28;0.70;;;0.70;;
19364;SDS011;9818;48.382;10.850;2023-05-10T13:53:59;0.70;;;0.70;;
19364;SDS011;9818;48.382;10.850;2023-05-10T13:56:28;0.70;;;0.70;;
19364;SDS011;9818;48.382;10.850;2023-05-10T13:58:57;0.63;;;0.63;;
19364;SDS011;9818;48.382;10.850;2023-05-10T14:01:25;0.77;;;0.77;;
19364;SDS011;9818;48.382;10.850;2023-05-10T14:03:57;0.60;;;0.60;;
19364;SDS011;9818;48.382;10.850;2023-05-10T14:06:25;0.90;;;0.70;;
19364;SDS011;9818;48.382;10.850;2023-05-10T14:08:54;0.90;;;0.73;;
19364;SDS011;9818;48.382;10.850;2023-05-10T14:11:23;0.90;;;0.90;;
19364;SDS011;9818;48.382;10.850;2023-05-10T14:13:52;0.70;;;0.70;;
19364;SDS011;9818;48.382;10.850;2023-05-10T14:16:21;1.43;;;0.80;;
19364;SDS011;9818;48.382;10.850;2023-05-10T14:18:49;0.70;;;0.70;;
19364;SDS011;9818;48.382;10.850;2023-05-10T14:21:21;0.70;;;0.70;;
19364;SDS011;9818;48.382;10.850;2023-05-10T14:23:49;0.70;;;0.70;;
19364;SDS011;9818;48.382;10.850;2023-05-10T14:26:19;0.70;;;0.70;;
19364;SDS011;9818;48.382;10.850;2023-05-10T14:28:47;0.60;;;0.60;;
19364;SDS011;9818;48.382;10.850;2023-05-10T14:31:16;0.97;;;0.70;;
19364;SDS011;9818;48.382;10.850;2023-05-10T14:33:45;0.63;;;0.63;;
19364;SDS011;9818;48.382;10.850;2023-05-10T14:36:14;1.10;;;0.80;;
19364;SDS011;9818;48.382;10.850;2023-05-10T14:38:45;0.70;;;0.70;;
19364;SDS011;9818;48.382;10.850;2023-05-10T14:41:14;0.93;;;0.67;;
19364;SDS011;9818;48.382;10.850;2023-05-10T14:43:43;0.97;;;0.67;;
19364;SDS011;9818;48.382;10.850;2023-05-10T14:46:12;1.40;;;0.90;;
19364;SDS011;9818;48.382;10.850;2023-05-10T14:48:41;0.73;;;0.70;;
19364;SDS011;9818;48.382;10.850;2023-05-10T14:51:09;0.93;;;0.83;;
19364;SDS011;9818;48.382;10.850;2023-05-10T14:53:38;0.67;;;0.67;;
19364;SDS011;9818;48.382;10.850;2023-05-10T14:56:09;0.70;;;0.70;;
19364;SDS011;9818;48.382;10.850;2023-05-10T14:58:38;0.60;;;0.60;;
19364;SDS011;9818;48.382;10.850;2023-05-10T15:01:06;0.70;;;0.70;;
19364;SDS011;9818;48.382;10.850;2023-05-10T15:03:35;0.70;;;0.70;;
19364;SDS011;9818;48.382;10.850;2023-05-10T15:06:04;0.70;;;0.70;;
19364;SDS011;9818;48.382;10.850;2023-05-10T15:08:33;1.00;;;0.70;;
19364;SDS011;9818;48.382;10.850;2023-05-10T15:11:02;1.37;;;0.80;;
19364;SDS011;9818;48.382;10.850;2023-05-10T15:13:33;0.73;;;0.73;;
19364;SDS011;9818;48.382;10.850;2023-05-10T15:16:01;0.80;;;0.80;;